createdAt,value
2019-05-23T00:00:29.888Z,0.00
2019-05-23T00:01:30.113Z,0.00
2019-05-23T00:02:30.290Z,0.00
2019-05-23T00:03:30.511Z,0.00
2019-05-23T00:04:30.726Z,0.00
2019-05-23T00:05:30.895Z,0.00
2019-05-23T00:06:31.114Z,0.00
2019-05-23T00:07:31.297Z,0.00
2019-05-23T00:08:31.479Z,0.00
2019-05-23T00:09:31.672Z,0.00
2019-05-23T00:10:31.849Z,0.00
2019-05-23T00:11:32.039Z,0.00
2019-05-23T00:12:32.248Z,0.00
2019-05-23T00:13:32.426Z,0.00
2019-05-23T00:14:32.591Z,0.00
2019-05-23T00:15:32.740Z,0.00
2019-05-23T00:16:32.915Z,0.00
2019-05-23T00:17:33.096Z,0.00
2019-05-23T00:18:33.261Z,0.00
2019-05-23T00:19:33.483Z,0.00
2019-05-23T00:20:33.665Z,0.00
2019-05-23T00:21:33.810Z,0.00
2019-05-23T00:22:34.019Z,0.00
2019-05-23T00:23:34.196Z,0.00
2019-05-23T00:24:34.369Z,0.00
2019-05-23T00:25:35.443Z,0.00
2019-05-23T00:26:35.451Z,0.00
2019-05-23T00:27:34.901Z,0.00
2019-05-23T00:28:35.087Z,0.00
2019-05-23T00:29:35.948Z,0.00
2019-05-23T00:30:35.454Z,0.00
2019-05-23T00:31:35.638Z,0.00
2019-05-23T00:32:35.792Z,0.00
2019-05-23T00:33:35.954Z,0.00
2019-05-23T00:34:36.967Z,0.00
2019-05-23T00:35:36.214Z,0.00
2019-05-23T00:36:36.982Z,0.00
2019-05-23T00:37:36.493Z,0.00
2019-05-23T00:38:36.716Z,0.00
2019-05-23T00:39:36.948Z,0.00
2019-05-23T00:40:37.092Z,0.00
2019-05-23T00:41:37.256Z,0.00
2019-05-23T00:42:37.422Z,0.00
2019-05-23T00:43:37.573Z,0.00
2019-05-23T00:44:37.732Z,0.00
2019-05-23T00:45:37.897Z,0.00
2019-05-23T00:46:38.064Z,0.00
2019-05-23T00:47:39.219Z,0.00
2019-05-23T00:48:38.359Z,0.00
2019-05-23T00:49:38.535Z,0.00
2019-05-23T00:50:38.715Z,0.00
2019-05-23T00:51:38.948Z,0.00
2019-05-23T00:52:39.116Z,0.00
2019-05-23T00:53:39.976Z,0.00
2019-05-23T00:54:39.533Z,0.00
2019-05-23T00:55:39.729Z,0.00
2019-05-23T00:56:39.929Z,0.00
2019-05-23T00:57:40.058Z,0.00
2019-05-23T00:58:40.228Z,0.00
2019-05-23T00:59:40.941Z,0.00
2019-05-23T01:00:40.569Z,0.00
2019-05-23T01:01:40.746Z,0.00
2019-05-23T01:02:41.457Z,0.00
2019-05-23T01:03:41.105Z,0.00
2019-05-23T01:04:41.945Z,0.00
2019-05-23T01:05:41.518Z,0.00
2019-05-23T01:06:41.965Z,0.00
2019-05-23T01:07:41.860Z,0.00
2019-05-23T01:08:42.948Z,0.00
2019-05-23T01:09:43.959Z,0.00
2019-05-23T01:10:42.480Z,0.00
2019-05-23T01:11:42.660Z,0.00
2019-05-23T01:12:42.835Z,0.00
2019-05-23T01:13:42.999Z,0.00
2019-05-23T01:14:43.191Z,0.00
2019-05-23T01:15:43.366Z,0.00
2019-05-23T01:16:44.455Z,0.00
2019-05-23T01:17:43.708Z,0.00
2019-05-23T01:18:43.877Z,0.00
2019-05-23T01:19:44.043Z,0.00
2019-05-23T01:20:44.203Z,0.00
2019-05-23T01:21:44.348Z,0.00
2019-05-23T01:22:44.511Z,0.00
2019-05-23T01:23:44.759Z,0.00
2019-05-23T01:24:44.815Z,0.00
2019-05-23T01:25:45.019Z,0.00
2019-05-23T01:26:45.200Z,0.00
2019-05-23T01:27:45.391Z,0.00
2019-05-23T01:28:46.488Z,0.00
2019-05-23T01:29:49.635Z,0.00
2019-05-23T01:30:47.002Z,0.00
2019-05-23T01:31:46.157Z,0.00
2019-05-23T01:32:46.371Z,0.00
2019-05-23T01:33:46.546Z,0.00
2019-05-23T01:34:46.708Z,0.00
2019-05-23T01:35:46.892Z,0.00
2019-05-23T01:36:47.094Z,0.00
2019-05-23T01:37:47.272Z,0.00
2019-05-23T01:38:48.461Z,0.00
2019-05-23T01:39:47.589Z,0.00
2019-05-23T01:40:47.737Z,0.00
2019-05-23T01:41:47.967Z,0.00
2019-05-23T01:42:48.120Z,0.00
2019-05-23T01:43:48.293Z,0.00
2019-05-23T01:44:48.445Z,0.00
2019-05-23T01:45:48.605Z,0.00
2019-05-23T01:46:48.778Z,0.00
2019-05-23T01:47:48.963Z,0.00
2019-05-23T01:48:49.465Z,0.00
2019-05-23T01:49:49.364Z,0.00
2019-05-23T01:50:49.558Z,0.00
2019-05-23T01:51:49.743Z,0.00
2019-05-23T01:52:49.895Z,0.00
2019-05-23T01:53:50.060Z,0.00
2019-05-23T01:54:50.256Z,0.00
2019-05-23T01:55:50.407Z,0.00
2019-05-23T01:56:50.572Z,0.00
2019-05-23T01:57:50.736Z,0.00
2019-05-23T01:58:50.887Z,0.00
2019-05-23T02:00:07.836Z,0.00
2019-05-23T02:00:53.951Z,0.00
2019-05-23T02:01:51.481Z,0.00
2019-05-23T02:02:51.521Z,0.00
2019-05-23T02:03:51.692Z,0.00
2019-05-23T02:04:51.887Z,0.00
2019-05-23T02:05:52.047Z,0.00
2019-05-23T02:06:52.959Z,0.00
2019-05-23T02:07:52.439Z,0.00
2019-05-23T02:08:52.590Z,0.00
2019-05-23T02:09:52.777Z,0.00
2019-05-23T02:10:52.920Z,0.00
2019-05-23T02:11:53.965Z,0.00
2019-05-23T02:12:53.262Z,0.00
2019-05-23T02:13:53.411Z,0.00
2019-05-23T02:14:53.590Z,0.00
2019-05-23T02:15:53.749Z,0.00
2019-05-23T02:16:53.871Z,0.00
2019-05-23T02:17:54.063Z,0.00
2019-05-23T02:18:54.963Z,0.00
2019-05-23T02:19:54.434Z,0.00
2019-05-23T02:20:55.450Z,0.00
2019-05-23T02:21:56.447Z,0.00
2019-05-23T02:22:55.465Z,0.00
2019-05-23T02:23:55.099Z,0.00
2019-05-23T02:24:55.269Z,0.00
2019-05-23T02:25:55.413Z,0.00
2019-05-23T02:26:55.577Z,0.00
2019-05-23T02:27:56.747Z,0.00
2019-05-23T02:28:55.877Z,0.00
2019-05-23T02:29:56.475Z,0.00
2019-05-23T02:30:56.967Z,0.00
2019-05-23T02:31:56.951Z,0.00
2019-05-23T02:32:56.622Z,0.00
2019-05-23T02:33:56.793Z,0.00
2019-05-23T02:34:57.958Z,0.00
2019-05-23T02:35:58.955Z,0.00
2019-05-23T02:36:57.210Z,0.00
2019-05-23T02:37:57.409Z,0.00
2019-05-23T02:38:57.581Z,0.00
2019-05-23T02:39:57.744Z,0.00
2019-05-23T02:40:58.449Z,0.00
2019-05-23T02:41:58.110Z,0.00
2019-05-23T02:42:58.967Z,4.00
2019-05-23T02:43:58.461Z,4.00
2019-05-23T02:44:58.631Z,4.00
2019-05-23T02:45:58.793Z,4.00
2019-05-23T02:46:58.966Z,4.00
2019-05-23T02:47:59.107Z,0.00
2019-05-23T02:48:59.292Z,0.00
2019-05-23T02:49:59.456Z,4.00
2019-05-23T02:50:59.965Z,4.00
2019-05-23T02:51:59.860Z,4.00
2019-05-23T02:52:59.994Z,4.00
2019-05-23T02:54:00.151Z,4.00
2019-05-23T02:55:00.291Z,8.00
2019-05-23T02:56:00.441Z,4.00
2019-05-23T02:57:00.561Z,8.00
2019-05-23T02:58:00.970Z,8.00
2019-05-23T02:59:00.869Z,12.00
2019-05-23T03:00:01.008Z,8.00
2019-05-23T03:01:01.147Z,12.00
2019-05-23T03:02:01.277Z,12.00
2019-05-23T03:03:01.430Z,16.00
2019-05-23T03:04:02.466Z,16.00
2019-05-23T03:05:01.854Z,16.00
2019-05-23T03:06:02.036Z,20.00
2019-05-23T03:07:02.209Z,24.00
2019-05-23T03:08:02.953Z,28.00
2019-05-23T03:09:03.471Z,32.00
2019-05-23T03:10:02.710Z,36.00
2019-05-23T03:11:02.860Z,40.00
2019-05-23T03:12:03.018Z,44.00
2019-05-23T03:13:03.511Z,44.00
2019-05-23T03:14:03.442Z,48.00
2019-05-23T03:15:04.502Z,56.00
2019-05-23T03:16:05.495Z,60.00
2019-05-23T03:17:04.026Z,68.00
2019-05-23T03:18:04.974Z,76.00
2019-05-23T03:19:04.386Z,84.00
2019-05-23T03:20:05.490Z,92.00
2019-05-23T03:21:04.748Z,96.00
2019-05-23T03:22:04.996Z,104.00
2019-05-23T03:23:05.042Z,112.00
2019-05-23T03:24:05.998Z,124.00
2019-05-23T03:25:05.973Z,136.00
2019-05-23T03:26:05.623Z,144.00
2019-05-23T03:27:05.965Z,156.00
2019-05-23T03:28:06.998Z,172.00
2019-05-23T03:29:06.512Z,188.00
2019-05-23T03:30:06.984Z,200.00
2019-05-23T03:31:26.813Z,224.00
2019-05-23T03:32:09.479Z,240.00
2019-05-23T03:33:06.735Z,264.00
2019-05-23T03:34:06.908Z,288.00
2019-05-23T03:35:07.086Z,312.00
2019-05-23T03:36:07.271Z,340.00
2019-05-23T03:37:07.995Z,368.00
2019-05-23T03:38:07.676Z,396.00
2019-05-23T03:39:08.482Z,428.00
2019-05-23T03:40:08.486Z,456.00
2019-05-23T03:41:08.981Z,488.00
2019-05-23T03:42:08.980Z,520.00
2019-05-23T03:43:09.493Z,556.00
2019-05-23T03:44:08.999Z,588.00
2019-05-23T03:45:09.464Z,624.00
2019-05-23T03:46:09.494Z,660.00
2019-05-23T03:47:10.668Z,696.00
2019-05-23T03:48:09.139Z,736.00
2019-05-23T03:49:09.316Z,776.00
2019-05-23T03:50:09.480Z,820.00
2019-05-23T03:51:09.644Z,868.00
2019-05-23T03:52:10.471Z,916.00
2019-05-23T03:53:09.961Z,964.00
2019-05-23T03:54:10.145Z,1020.00
2019-05-23T03:55:12.072Z,1096.00
2019-05-23T03:56:10.439Z,1168.00
2019-05-23T03:57:10.582Z,1248.00
2019-05-23T03:58:10.739Z,1312.00
2019-05-23T03:59:10.922Z,1376.00
2019-05-23T04:00:11.065Z,1456.00
2019-05-23T04:01:11.199Z,1560.00
2019-05-23T04:02:11.365Z,1668.00
2019-05-23T04:03:11.542Z,1768.00
2019-05-23T04:04:11.702Z,1868.00
2019-05-23T04:05:11.865Z,1960.00
2019-05-23T04:06:12.005Z,2064.00
2019-05-23T04:07:12.164Z,2184.00
2019-05-23T04:08:13.347Z,2320.00
2019-05-23T04:09:12.456Z,2452.00
2019-05-23T04:10:12.606Z,2564.00
2019-05-23T04:11:12.730Z,2640.00
2019-05-23T04:12:12.895Z,2696.00
2019-05-23T04:13:13.063Z,2764.00
2019-05-23T04:14:13.262Z,2872.00
2019-05-23T04:15:13.437Z,2996.00
2019-05-23T04:16:13.557Z,3132.00
2019-05-23T04:17:13.699Z,3280.00
2019-05-23T04:18:13.818Z,3440.00
2019-05-23T04:19:13.978Z,3572.00
2019-05-23T04:20:14.119Z,3688.00
2019-05-23T04:21:14.289Z,3800.00
2019-05-23T04:22:14.428Z,3896.00
2019-05-23T04:23:14.551Z,3940.00
2019-05-23T04:24:14.715Z,3904.00
2019-05-23T04:25:14.801Z,3860.00
2019-05-23T04:26:14.983Z,3792.00
2019-05-23T04:27:15.098Z,3804.00
2019-05-23T04:28:15.306Z,3968.00
2019-05-23T04:29:15.551Z,4144.00
2019-05-23T04:30:15.657Z,4144.00
2019-05-23T04:31:15.867Z,4008.00
2019-05-23T04:32:16.014Z,3940.00
2019-05-23T04:33:16.135Z,4032.00
2019-05-23T04:34:16.246Z,4332.00
2019-05-23T04:35:16.530Z,4740.00
2019-05-23T04:36:16.686Z,5164.00
2019-05-23T04:37:16.827Z,5660.00
2019-05-23T04:38:16.980Z,6216.00
2019-05-23T04:39:17.129Z,6796.00
2019-05-23T04:40:17.287Z,7052.00
2019-05-23T04:41:17.443Z,7164.00
2019-05-23T04:42:17.577Z,7536.00
2019-05-23T04:43:17.711Z,7884.00
2019-05-23T04:44:17.837Z,8396.00
2019-05-23T04:45:17.985Z,8772.00
2019-05-23T04:46:18.164Z,9228.00
2019-05-23T04:47:18.394Z,9744.00
2019-05-23T04:48:18.548Z,11772.00
2019-05-23T04:49:18.711Z,16864.00
2019-05-23T04:50:18.922Z,22720.00
2019-05-23T04:51:19.078Z,27072.00
2019-05-23T04:52:19.280Z,28128.00
2019-05-23T04:53:19.427Z,29632.00
2019-05-23T04:54:19.561Z,30144.00
2019-05-23T04:55:19.715Z,30976.00
2019-05-23T04:56:19.863Z,31968.00
2019-05-23T04:57:20.063Z,30496.00
2019-05-23T04:58:20.285Z,25536.00
2019-05-23T04:59:20.453Z,26176.00
2019-05-23T05:00:20.613Z,20704.00
2019-05-23T05:01:20.755Z,15936.00
2019-05-23T05:02:26.203Z,20928.00
2019-05-23T05:03:23.037Z,23488.00
2019-05-23T05:04:21.139Z,28960.00
2019-05-23T05:05:21.300Z,19648.00
2019-05-23T05:06:21.485Z,14680.00
2019-05-23T05:07:21.643Z,16064.00
2019-05-23T05:08:21.809Z,13892.00
2019-05-23T05:09:22.007Z,16576.00
2019-05-23T05:10:22.143Z,13568.00
2019-05-23T05:11:22.309Z,13628.00
2019-05-23T05:12:22.487Z,17856.00
2019-05-23T05:13:23.686Z,22560.00
2019-05-23T05:14:22.807Z,32448.00
2019-05-23T05:15:22.998Z,39904.00
2019-05-23T05:16:23.138Z,44128.00
2019-05-23T05:17:23.282Z,44416.00
2019-05-23T05:18:23.435Z,39680.00
2019-05-23T05:19:23.590Z,42048.00
2019-05-23T05:20:23.752Z,41824.00
2019-05-23T05:21:23.932Z,45856.00
2019-05-23T05:22:24.114Z,43008.00
2019-05-23T05:23:24.290Z,41280.00
2019-05-23T05:24:24.461Z,35872.00
2019-05-23T05:25:24.595Z,34528.00
2019-05-23T05:26:24.818Z,35808.00
2019-05-23T05:27:24.984Z,35200.00
2019-05-23T05:28:25.180Z,34688.00
2019-05-23T05:29:25.345Z,32576.00
2019-05-23T05:30:25.498Z,34944.00
2019-05-23T05:31:25.683Z,41696.00
2019-05-23T05:32:41.508Z,34816.00
2019-05-23T05:33:26.930Z,31328.00
2019-05-23T05:34:26.060Z,31776.00
2019-05-23T05:35:26.215Z,35936.00
2019-05-23T05:36:26.373Z,40352.00
2019-05-23T05:37:26.518Z,40640.00
2019-05-23T05:38:28.776Z,37504.00
2019-05-23T05:39:27.911Z,30592.00
2019-05-23T05:40:27.055Z,32416.00
2019-05-23T05:41:27.223Z,32416.00
2019-05-23T05:42:27.367Z,32544.00
2019-05-23T05:43:27.519Z,34336.00
2019-05-23T05:44:27.703Z,30976.00
2019-05-23T05:45:27.911Z,33952.00
2019-05-23T05:46:28.079Z,34080.00
2019-05-23T05:47:28.221Z,32864.00
2019-05-23T05:48:28.473Z,34496.00
2019-05-23T05:49:28.631Z,39936.00
2019-05-23T05:50:28.838Z,45760.00
2019-05-23T05:51:28.944Z,49120.00
2019-05-23T05:52:29.158Z,46880.00
2019-05-23T05:53:29.288Z,42592.00
2019-05-23T05:54:29.449Z,44768.00
2019-05-23T05:55:29.580Z,47360.00
2019-05-23T05:56:29.743Z,49312.00
2019-05-23T05:57:29.913Z,49792.00
2019-05-23T05:58:30.058Z,46880.00
2019-05-23T05:59:30.224Z,51616.00
2019-05-23T06:00:30.424Z,53856.00
2019-05-23T06:01:34.034Z,53056.00
2019-05-23T06:02:31.820Z,51936.00
2019-05-23T06:03:30.961Z,49440.00
2019-05-23T06:04:31.102Z,42976.00
2019-05-23T06:05:31.263Z,37952.00
2019-05-23T06:06:31.452Z,41344.00
2019-05-23T06:07:31.643Z,45280.00
2019-05-23T06:08:31.826Z,48288.00
2019-05-23T06:09:32.035Z,47328.00
2019-05-23T06:10:32.261Z,48896.00
2019-05-23T06:11:32.425Z,46432.00
2019-05-23T06:12:32.617Z,40896.00
2019-05-23T06:13:33.869Z,43328.00
2019-05-23T06:14:32.942Z,42272.00
2019-05-23T06:15:33.123Z,40512.00
2019-05-23T06:16:33.350Z,37856.00
2019-05-23T06:17:33.511Z,46784.00
2019-05-23T06:18:33.703Z,48288.00
2019-05-23T06:19:33.896Z,46304.00
2019-05-23T06:20:34.083Z,53856.00
2019-05-23T06:21:34.261Z,55424.00
2019-05-23T06:22:34.351Z,57120.00
2019-05-23T06:23:34.535Z,55872.00
2019-05-23T06:24:44.366Z,53696.00
2019-05-23T06:25:36.876Z,57952.00
2019-05-23T06:26:34.995Z,64928.00
2019-05-23T06:27:35.508Z,62656.00
2019-05-23T06:28:36.012Z,59712.00
2019-05-23T06:29:35.561Z,59200.00
2019-05-23T06:30:36.009Z,58752.00
2019-05-23T06:31:36.021Z,65472.00
2019-05-23T06:32:37.027Z,68384.00
2019-05-23T06:33:37.000Z,67040.00
2019-05-23T06:34:36.476Z,74400.00
2019-05-23T06:35:37.495Z,76992.00
2019-05-23T06:36:36.918Z,75808.00
2019-05-23T06:37:37.052Z,72032.00
2019-05-23T06:38:37.996Z,73248.00
2019-05-23T06:39:37.392Z,84512.00
2019-05-23T06:40:37.568Z,84128.00
2019-05-23T06:41:37.712Z,84192.00
2019-05-23T06:42:37.958Z,83296.00
2019-05-23T06:43:39.000Z,86368.00
2019-05-23T06:44:38.269Z,87904.00
2019-05-23T06:45:38.481Z,91936.00
2019-05-23T06:46:38.650Z,95456.00
2019-05-23T06:47:38.853Z,93280.00
2019-05-23T06:48:45.231Z,96512.00
2019-05-23T06:49:40.992Z,97088.00
2019-05-23T06:50:39.365Z,91584.00
2019-05-23T06:51:39.528Z,90848.00
2019-05-23T06:52:40.021Z,97344.00
2019-05-23T06:53:39.921Z,101696.00
2019-05-23T06:54:41.001Z,94528.00
2019-05-23T06:55:40.999Z,92192.00
2019-05-23T06:56:41.016Z,89888.00
2019-05-23T06:57:40.559Z,86592.00
2019-05-23T06:58:40.717Z,87200.00
2019-05-23T06:59:40.850Z,81920.00
2019-05-23T07:00:41.513Z,84672.00
2019-05-23T07:01:41.141Z,82976.00
2019-05-23T07:02:42.271Z,78208.00
2019-05-23T07:03:43.601Z,76256.00
2019-05-23T07:04:43.502Z,77472.00
2019-05-23T07:05:42.504Z,77984.00
2019-05-23T07:06:42.020Z,73472.00
2019-05-23T07:07:42.151Z,73920.00
2019-05-23T07:08:42.516Z,68320.00
2019-05-23T07:09:42.531Z,65120.00
2019-05-23T07:10:42.886Z,63648.00
2019-05-23T07:11:43.507Z,64224.00
2019-05-23T07:12:43.519Z,65504.00
2019-05-23T07:13:43.195Z,69056.00
2019-05-23T07:14:43.406Z,72128.00
2019-05-23T07:15:44.518Z,69824.00
2019-05-23T07:16:44.809Z,70592.00
2019-05-23T07:17:43.959Z,70816.00
2019-05-23T07:18:44.697Z,73824.00
2019-05-23T07:19:44.437Z,73312.00
2019-05-23T07:20:45.766Z,73056.00
2019-05-23T07:21:44.871Z,72832.00
2019-05-23T07:22:45.118Z,74432.00
2019-05-23T07:23:45.229Z,75104.00
2019-05-23T07:24:57.350Z,77248.00
2019-05-23T07:25:47.543Z,78240.00
2019-05-23T07:26:45.679Z,77728.00
2019-05-23T07:27:45.845Z,79872.00
2019-05-23T07:28:46.038Z,77472.00
2019-05-23T07:29:46.219Z,78272.00
2019-05-23T07:30:46.404Z,80512.00
2019-05-23T07:31:46.591Z,80640.00
2019-05-23T07:32:46.750Z,79872.00
2019-05-23T07:34:01.210Z,75328.00
2019-05-23T07:34:49.154Z,72576.00
2019-05-23T07:35:47.378Z,78816.00
2019-05-23T07:36:48.521Z,81600.00
2019-05-23T07:37:47.792Z,81920.00
2019-05-23T07:38:47.940Z,81760.00
2019-05-23T07:39:48.086Z,80384.00
2019-05-23T07:40:48.327Z,78176.00
2019-05-23T07:41:48.449Z,76352.00
2019-05-23T07:42:48.599Z,69504.00
2019-05-23T07:43:48.747Z,69216.00
2019-05-23T07:44:48.873Z,71296.00
2019-05-23T07:45:49.532Z,72864.00
2019-05-23T07:46:49.215Z,71616.00
2019-05-23T07:47:49.374Z,78368.00
2019-05-23T07:48:49.621Z,74656.00
2019-05-23T07:49:49.667Z,71360.00
2019-05-23T07:50:49.894Z,75520.00
2019-05-23T07:51:50.045Z,76672.00
2019-05-23T07:52:51.021Z,74784.00
2019-05-23T07:53:50.783Z,73952.00
2019-05-23T07:54:50.627Z,68928.00
2019-05-23T07:55:50.792Z,62464.00
2019-05-23T07:56:50.970Z,74080.00
2019-05-23T07:57:51.110Z,76320.00
2019-05-23T07:58:51.299Z,80064.00
2019-05-23T07:59:51.461Z,78240.00
2019-05-23T08:00:51.606Z,73024.00
2019-05-23T08:01:51.781Z,68704.00
2019-05-23T08:02:51.965Z,71008.00
2019-05-23T08:03:54.029Z,66112.00
2019-05-23T08:04:52.291Z,64736.00
2019-05-23T08:05:52.466Z,71968.00
2019-05-23T08:06:52.661Z,76352.00
2019-05-23T08:07:52.846Z,76768.00
2019-05-23T08:08:53.544Z,72192.00
2019-05-23T08:09:53.220Z,74080.00
2019-05-23T08:10:53.545Z,77888.00
2019-05-23T08:11:53.607Z,75712.00
2019-05-23T08:12:54.530Z,73856.00
2019-05-23T08:13:54.912Z,77760.00
2019-05-23T08:14:54.013Z,82112.00
2019-05-23T08:15:55.177Z,82880.00
2019-05-23T08:16:54.322Z,80352.00
2019-05-23T08:17:54.549Z,79840.00
2019-05-23T08:18:55.724Z,79616.00
2019-05-23T08:19:54.864Z,84736.00
2019-05-23T08:20:56.022Z,84128.00
2019-05-23T08:21:56.289Z,82464.00
2019-05-23T08:22:55.487Z,85440.00
2019-05-23T08:23:56.052Z,84288.00
2019-05-23T08:24:57.544Z,81792.00
2019-05-23T08:25:56.575Z,82464.00
2019-05-23T08:26:56.226Z,84352.00
2019-05-23T08:27:56.389Z,84256.00
2019-05-23T08:29:22.235Z,82912.00
2019-05-23T08:30:01.983Z,80288.00
2019-05-23T08:30:57.538Z,80224.00
2019-05-23T08:31:57.052Z,82784.00
2019-05-23T08:32:57.214Z,82880.00
2019-05-23T08:33:57.404Z,68256.00
2019-05-23T08:34:57.559Z,79232.00
2019-05-23T08:35:58.543Z,78688.00
2019-05-23T08:36:57.933Z,76128.00
2019-05-23T08:37:58.086Z,75200.00
2019-05-23T08:38:58.564Z,73600.00
2019-05-23T08:39:58.484Z,71264.00
2019-05-23T08:40:59.546Z,67296.00
2019-05-23T08:41:59.580Z,67200.00
2019-05-23T08:42:59.548Z,61472.00
2019-05-23T08:43:59.231Z,66656.00
2019-05-23T08:44:59.361Z,56512.00
2019-05-23T08:45:59.498Z,67936.00
2019-05-23T08:47:00.545Z,71424.00
2019-05-23T08:48:00.549Z,16648.00
2019-05-23T08:49:00.089Z,65216.00
2019-05-23T08:50:01.063Z,68096.00
2019-05-23T08:51:01.061Z,70400.00
2019-05-23T08:52:00.433Z,70272.00
2019-05-23T08:53:00.639Z,69024.00
2019-05-23T08:54:00.818Z,68864.00
2019-05-23T08:55:00.950Z,65408.00
2019-05-23T08:56:02.123Z,62624.00
2019-05-23T08:57:02.047Z,60992.00
2019-05-23T08:58:02.097Z,62048.00
2019-05-23T08:59:01.629Z,63232.00
2019-05-23T09:00:01.796Z,63488.00
2019-05-23T09:01:01.965Z,66752.00
2019-05-23T09:02:02.138Z,47616.00
2019-05-23T09:03:03.068Z,66144.00
2019-05-23T09:04:02.480Z,52416.00
2019-05-23T09:05:06.181Z,61984.00
2019-05-23T09:06:04.555Z,42176.00
2019-05-23T09:07:03.556Z,33792.00
2019-05-23T09:08:03.218Z,15840.00
2019-05-23T09:09:03.577Z,59232.00
2019-05-23T09:10:03.622Z,31488.00
2019-05-23T09:11:04.557Z,57152.00
2019-05-23T09:12:04.545Z,15968.00
2019-05-23T09:13:05.066Z,42016.00
2019-05-23T09:14:04.224Z,31072.00
2019-05-23T09:15:04.402Z,28256.00
2019-05-23T09:16:04.602Z,27488.00
2019-05-23T09:17:04.829Z,15940.00
2019-05-23T09:18:04.944Z,15788.00
2019-05-23T09:19:05.118Z,27616.00
2019-05-23T09:20:05.584Z,27552.00
2019-05-23T09:21:05.485Z,27072.00
2019-05-23T09:22:05.658Z,26528.00
2019-05-23T09:23:05.835Z,25632.00
2019-05-23T09:24:06.562Z,25824.00
2019-05-23T09:25:07.229Z,25728.00
2019-05-23T09:26:07.061Z,25088.00
2019-05-23T09:27:07.582Z,25248.00
2019-05-23T09:28:06.722Z,23680.00
2019-05-23T09:29:06.930Z,17348.00
2019-05-23T09:30:07.581Z,24384.00
2019-05-23T09:31:07.246Z,23936.00
2019-05-23T09:32:07.413Z,23296.00
2019-05-23T09:33:07.605Z,23072.00
2019-05-23T09:34:08.568Z,22720.00
2019-05-23T09:35:20.271Z,22720.00
2019-05-23T09:36:10.115Z,22112.00
2019-05-23T09:37:09.071Z,19904.00
2019-05-23T09:38:08.570Z,20800.00
2019-05-23T09:39:08.728Z,22464.00
2019-05-23T09:40:08.914Z,21024.00
2019-05-23T09:41:09.567Z,22144.00
2019-05-23T09:42:12.203Z,22592.00
2019-05-23T09:43:10.411Z,15024.00
2019-05-23T09:44:10.078Z,14732.00
2019-05-23T09:45:10.091Z,14748.00
2019-05-23T09:46:09.850Z,23904.00
2019-05-23T09:47:10.591Z,24160.00
2019-05-23T09:48:10.128Z,19424.00
2019-05-23T09:49:11.197Z,20256.00
2019-05-23T09:50:12.074Z,24640.00
2019-05-23T09:51:11.091Z,24768.00
2019-05-23T09:52:12.152Z,24416.00
2019-05-23T09:53:11.572Z,22688.00
2019-05-23T09:54:11.331Z,20064.00
2019-05-23T09:55:11.482Z,13216.00
2019-05-23T09:56:12.129Z,12008.00
2019-05-23T09:57:12.579Z,11476.00
2019-05-23T09:58:12.616Z,11044.00
2019-05-23T09:59:14.071Z,22912.00
2019-05-23T10:00:13.280Z,11948.00
2019-05-23T10:01:12.531Z,11364.00
2019-05-23T10:02:12.685Z,24608.00
2019-05-23T10:03:13.090Z,15132.00
2019-05-23T10:04:13.594Z,24096.00
2019-05-23T10:05:14.080Z,23232.00
2019-05-23T10:06:13.606Z,16196.00
2019-05-23T10:07:14.087Z,13244.00
2019-05-23T10:08:13.729Z,13456.00
2019-05-23T10:09:13.931Z,21152.00
2019-05-23T10:10:14.136Z,11980.00
2019-05-23T10:11:14.368Z,12116.00
2019-05-23T10:12:14.530Z,19104.00
2019-05-23T10:13:14.778Z,18848.00
2019-05-23T10:14:14.959Z,19136.00
2019-05-23T10:15:15.136Z,16096.00
2019-05-23T10:16:15.618Z,18624.00
2019-05-23T10:17:16.087Z,17376.00
2019-05-23T10:18:15.752Z,15720.00
2019-05-23T10:19:15.914Z,17312.00
2019-05-23T10:20:16.075Z,13672.00
2019-05-23T10:21:16.595Z,16800.00
2019-05-23T10:22:16.510Z,10764.00
2019-05-23T10:23:16.678Z,10228.00
2019-05-23T10:24:16.838Z,9684.00
2019-05-23T10:25:17.604Z,10104.00
2019-05-23T10:26:17.138Z,14680.00
2019-05-23T10:27:17.329Z,15968.00
2019-05-23T10:28:18.121Z,16672.00
2019-05-23T10:29:17.706Z,16352.00
2019-05-23T10:30:18.611Z,15728.00
2019-05-23T10:31:18.005Z,15912.00
2019-05-23T10:32:18.600Z,16128.00
2019-05-23T10:33:18.365Z,11560.00
2019-05-23T10:34:19.086Z,10532.00
2019-05-23T10:35:19.611Z,9876.00
2019-05-23T10:36:19.621Z,9744.00
2019-05-23T10:37:19.105Z,9792.00
2019-05-23T10:38:19.686Z,9920.00
2019-05-23T10:39:20.095Z,10284.00
2019-05-23T10:40:19.489Z,10512.00
2019-05-23T10:41:19.657Z,11608.00
2019-05-23T10:42:20.587Z,14048.00
2019-05-23T10:43:20.106Z,15420.00
2019-05-23T10:44:20.175Z,14724.00
2019-05-23T10:45:21.091Z,15644.00
2019-05-23T10:46:21.522Z,14156.00
2019-05-23T10:47:20.659Z,15348.00
2019-05-23T10:48:21.880Z,14848.00
2019-05-23T10:49:21.601Z,14968.00
2019-05-23T10:50:22.109Z,14996.00
2019-05-23T10:51:21.350Z,14528.00
2019-05-23T10:52:21.532Z,14976.00
2019-05-23T10:53:22.118Z,14744.00
2019-05-23T10:54:22.101Z,14756.00
2019-05-23T10:55:23.099Z,14704.00
2019-05-23T10:56:23.108Z,14764.00
2019-05-23T10:57:23.098Z,13148.00
2019-05-23T10:58:23.112Z,11168.00
2019-05-23T10:59:23.606Z,10792.00
2019-05-23T11:00:22.966Z,10736.00
2019-05-23T11:01:23.181Z,12764.00
2019-05-23T11:02:26.975Z,10620.00
2019-05-23T11:03:23.579Z,10560.00
2019-05-23T11:04:24.122Z,10512.00
2019-05-23T11:05:24.601Z,10376.00
2019-05-23T11:06:24.612Z,10272.00
2019-05-23T11:07:25.106Z,10296.00
2019-05-23T11:08:29.333Z,10260.00
2019-05-23T11:09:37.197Z,13168.00
2019-05-23T11:10:26.698Z,13212.00
2019-05-23T11:11:25.622Z,12744.00
2019-05-23T11:12:26.162Z,12640.00
2019-05-23T11:13:25.300Z,12472.00
2019-05-23T11:14:25.644Z,10492.00
2019-05-23T11:15:26.621Z,10244.00
2019-05-23T11:16:25.886Z,9568.00
2019-05-23T11:17:26.048Z,9184.00
2019-05-23T11:18:26.247Z,10668.00
2019-05-23T11:19:26.633Z,9456.00
2019-05-23T11:20:26.568Z,11840.00
2019-05-23T11:21:26.762Z,12816.00
2019-05-23T11:22:26.931Z,13200.00
2019-05-23T11:23:27.146Z,13504.00
2019-05-23T11:24:27.668Z,13788.00
2019-05-23T11:25:28.167Z,13756.00
2019-05-23T11:26:27.568Z,13536.00
2019-05-23T11:27:28.610Z,13236.00
2019-05-23T11:28:27.873Z,13084.00
2019-05-23T11:29:28.626Z,12952.00
2019-05-23T11:30:28.154Z,12728.00
2019-05-23T11:31:28.313Z,12384.00
2019-05-23T11:32:29.125Z,12228.00
2019-05-23T11:33:28.668Z,12224.00
2019-05-23T11:34:29.621Z,12316.00
2019-05-23T11:35:28.990Z,12452.00
2019-05-23T11:36:35.630Z,12412.00
2019-05-23T11:37:31.294Z,12432.00
2019-05-23T11:38:30.113Z,12124.00
2019-05-23T11:39:29.731Z,12100.00
2019-05-23T11:40:33.502Z,11468.00
2019-05-23T11:41:30.039Z,12256.00
2019-05-23T11:42:30.281Z,12404.00
2019-05-23T11:43:30.423Z,12168.00
2019-05-23T11:44:31.120Z,11920.00
2019-05-23T11:45:31.130Z,11848.00
2019-05-23T11:46:30.868Z,10332.00
2019-05-23T11:47:32.293Z,9996.00
2019-05-23T11:48:33.131Z,11228.00
2019-05-23T11:49:31.371Z,10080.00
2019-05-23T11:50:31.551Z,10228.00
2019-05-23T11:51:31.708Z,10216.00
2019-05-23T11:52:32.621Z,10196.00
2019-05-23T11:53:32.044Z,10996.00
2019-05-23T11:54:32.189Z,12148.00
2019-05-23T11:55:33.176Z,12484.00
2019-05-23T11:56:32.564Z,12788.00
2019-05-23T11:57:32.720Z,12680.00
2019-05-23T11:58:33.143Z,12576.00
2019-05-23T11:59:33.612Z,12400.00
2019-05-23T12:00:34.319Z,12388.00
2019-05-23T12:01:34.119Z,12152.00
2019-05-23T12:02:34.622Z,12100.00
2019-05-23T12:03:34.157Z,12184.00
2019-05-23T12:04:34.631Z,12072.00
2019-05-23T12:05:35.139Z,11864.00
2019-05-23T12:06:51.714Z,11864.00
2019-05-23T12:07:36.639Z,11584.00
2019-05-23T12:08:35.153Z,11756.00
2019-05-23T12:09:35.034Z,11736.00
2019-05-23T12:10:35.209Z,11676.00
2019-05-23T12:11:41.931Z,11504.00
2019-05-23T12:12:37.621Z,11400.00
2019-05-23T12:13:35.720Z,10600.00